Time;durP1;ratioP1;P1;durP2;ratioP2;P2;SDS_P1;SDS_P2;PMS_P1;PMS_P2;Temp;Humidity;BMP_temperature;BMP_pressure;BME280_temperature;BME280_humidity;BME280_pressure;Samples;Min_cycle;Max_cycle;Signal;HPM_P1;HPM_P2
2022/12/27 00:02:17;;;;;;;10.13;2.43;;;4.90;1.00;;;;;;5038324;28;20195;-64
2022/12/27 00:04:44;;;;;;;9.67;2.47;;;4.90;1.00;;;;;;5020805;28;20230;-64
2022/12/27 00:07:11;;;;;;;7.47;2.37;;;4.90;1.00;;;;;;5035939;28;20765;-64
2022/12/27 00:09:38;;;;;;;11.93;4.63;;;4.90;1.00;;;;;;5039073;28;20183;-64
2022/12/27 00:12:05;;;;;;;10.60;3.57;;;4.90;1.00;;;;;;5034917;28;20207;-64
2022/12/27 00:14:32;;;;;;;16.33;4.17;;;4.80;1.00;;;;;;5036318;28;20758;-65
2022/12/27 00:16:59;;;;;;;17.97;6.90;;;4.80;1.00;;;;;;5052969;28;20276;-65
2022/12/27 00:19:26;;;;;;;11.10;4.07;;;4.60;1.00;;;;;;5034832;28;20202;-65
2022/12/27 00:21:53;;;;;;;12.20;4.07;;;4.80;1.00;;;;;;5051124;28;20651;-63
2022/12/27 00:24:20;;;;;;;9.37;3.20;;;4.70;1.00;;;;;;5036932;28;20191;-62
2022/12/27 00:26:48;;;;;;;8.20;2.93;;;4.60;1.00;;;;;;5035761;28;20179;-63
2022/12/27 00:29:15;;;;;;;5.40;2.43;;;4.50;1.00;;;;;;5056317;28;20222;-64
2022/12/27 00:31:42;;;;;;;6.63;3.10;;;4.60;1.00;;;;;;5039608;28;20199;-67
2022/12/27 00:34:09;;;;;;;8.20;2.00;;;4.40;1.00;;;;;;5038703;28;20773;-63
2022/12/27 00:36:36;;;;;;;9.20;2.00;;;4.40;1.00;;;;;;5055361;28;20199;-63
2022/12/27 00:39:04;;;;;;;6.90;2.20;;;4.40;1.00;;;;;;5051676;28;20614;-64
2022/12/27 00:41:31;;;;;;;13.13;2.43;;;4.30;1.00;;;;;;5040335;28;20191;-64
2022/12/27 00:43:58;;;;;;;10.20;2.27;;;4.30;1.00;;;;;;5021739;28;20735;-63
2022/12/27 00:46:25;;;;;;;10.00;2.53;;;4.30;1.00;;;;;;5054861;28;20190;-64
2022/12/27 00:48:52;;;;;;;8.67;2.30;;;4.20;1.00;;;;;;5039421;28;20682;-63
2022/12/27 00:51:22;;;;;;;8.30;2.60;;;4.20;1.00;;;;;;5058172;28;20188;-62
2022/12/27 00:53:51;;;;;;;4.63;2.20;;;4.20;1.00;;;;;;5024113;28;20199;-62
2022/12/27 00:56:27;;;;;;;7.93;2.37;;;4.10;1.00;;;;;;5040797;28;20248;-62
2022/12/27 00:58:56;;;;;;;7.47;2.50;;;4.00;1.00;;;;;;5060772;28;20210;-63
2022/12/27 01:01:27;;;;;;;10.87;2.20;;;3.90;1.00;;;;;;5042212;28;20696;-62
2022/12/27 01:03:55;;;;;;;6.83;2.90;;;4.00;1.00;;;;;;5057633;28;20223;-63
2022/12/27 01:06:27;;;;;;;7.90;2.63;;;4.00;1.00;;;;;;5043012;28;20705;-63
2022/12/27 01:08:55;;;;;;;13.67;2.67;;;4.00;1.00;;;;;;5059381;28;20187;-63
2022/12/27 01:11:23;;;;;;;4.30;2.00;;;4.00;1.00;;;;;;5026273;28;20548;-64
2022/12/27 01:13:50;;;;;;;6.30;2.40;;;4.00;1.00;;;;;;5041890;28;20223;-62
2022/12/27 01:16:20;;;;;;;7.00;2.60;;;3.90;1.00;;;;;;5038665;28;20204;-62
2022/12/27 01:18:48;;;;;;;10.07;2.37;;;3.80;1.00;;;;;;5058442;28;20443;-63
2022/12/27 01:21:18;;;;;;;9.00;2.50;;;3.80;1.00;;;;;;5058612;28;20663;-63
2022/12/27 01:23:45;;;;;;;7.77;2.47;;;3.80;1.00;;;;;;5038293;28;20196;-65
2022/12/27 01:26:16;;;;;;;10.87;2.30;;;3.80;1.00;;;;;;5058998;28;20262;-66
2022/12/27 01:28:44;;;;;;;6.63;2.50;;;3.80;1.00;;;;;;5024837;28;20608;-66
2022/12/27 01:31:15;;;;;;;13.27;2.83;;;3.70;1.00;;;;;;5057129;28;20205;-65
2022/12/27 01:33:42;;;;;;;6.57;2.10;;;3.80;1.00;;;;;;5040971;28;20193;-65
2022/12/27 01:36:13;;;;;;;12.23;2.73;;;3.80;1.00;;;;;;5042251;28;20202;-64
2022/12/27 01:38:44;;;;;;;9.87;3.33;;;3.80;1.00;;;;;;5060146;28;20203;-63
2022/12/27 01:44:52;;;;;;;10.03;3.77;;;3.80;1.00;;;;;;5059951;28;20257;-65
2022/12/27 01:47:53;;;;;;;10.60;2.73;;;3.80;1.00;;;;;;5042293;28;20220;-65
2022/12/27 01:50:29;;;;;;;8.17;2.60;;;3.80;1.00;;;;;;5039639;28;20202;-63
2022/12/27 01:53:21;;;;;;;14.33;3.00;;;3.80;1.00;;;;;;5057587;28;20661;-64
2022/12/27 01:55:58;;;;;;;6.17;2.80;;;3.80;1.00;;;;;;5042873;28;20207;-63
2022/12/27 01:58:52;;;;;;;8.40;2.77;;;3.90;1.00;;;;;;5058097;28;20296;-64
2022/12/27 02:01:26;;;;;;;8.67;2.93;;;3.80;1.00;;;;;;5025107;28;20199;-64
2022/12/27 02:03:58;;;;;;;12.87;2.80;;;3.80;1.00;;;;;;5057566;28;20214;-64
2022/12/27 02:06:28;;;;;;;6.07;2.67;;;3.80;1.00;;;;;;5041243;28;20226;-64
2022/12/27 02:09:05;;;;;;;11.10;2.60;;;3.70;1.00;;;;;;5039625;28;20223;-65
2022/12/27 02:11:53;;;;;;;10.87;3.37;;;3.80;1.00;;;;;;5041217;28;20215;-64
2022/12/27 02:14:38;;;;;;;11.20;3.13;;;3.80;1.00;;;;;;5040732;28;20216;-65
2022/12/27 02:17:13;;;;;;;7.97;2.57;;;3.70;1.00;;;;;;5040103;28;20204;-64
2022/12/27 02:19:40;;;;;;;10.10;3.00;;;3.70;1.00;;;;;;5041274;28;20829;-63
2022/12/27 02:25:34;;;;;;;14.47;2.70;;;3.60;1.00;;;;;;5029261;28;20310;-62
2022/12/27 02:28:24;;;;;;;6.40;2.60;;;3.70;1.00;;;;;;5054874;28;20614;-63
2022/12/27 02:30:59;;;;;;;11.13;2.87;;;3.70;1.00;;;;;;5038355;28;20285;-65
2022/12/27 02:33:33;;;;;;;6.03;2.67;;;3.60;1.00;;;;;;5041007;28;20202;-63
2022/12/27 02:36:04;;;;;;;9.90;2.97;;;3.50;1.00;;;;;;5023403;28;20213;-64
2022/12/27 02:38:43;;;;;;;9.20;2.67;;;3.50;1.00;;;;;;5039873;28;20203;-64
2022/12/27 02:53:02;;;;;;;13.60;2.87;;;3.80;1.00;;;;;;5048469;28;20269;-63
2022/12/27 02:57:07;;;;;;;8.37;3.13;;;3.70;1.00;;;;;;5055468;28;20809;-71
2022/12/27 02:58:59;;;;;;;5.53;2.70;;;3.80;1.00;;;;;;5056134;28;20222;-64
2022/12/27 03:04:39;;;;;;;7.13;3.17;;;3.80;1.00;;;;;;5053766;28;20239;-69
2022/12/27 03:07:47;;;;;;;9.03;3.47;;;3.90;1.00;;;;;;5021542;28;20202;-68
2022/12/27 03:16:09;;;;;;;9.90;3.30;;;3.80;1.00;;;;;;5035703;28;20247;-69
2022/12/27 03:18:54;;;;;;;11.67;3.80;;;3.90;1.00;;;;;;5055402;28;20210;-70
2022/12/27 03:27:27;;;;;;;11.63;3.30;;;3.90;1.00;;;;;;5054503;28;20290;-71
2022/12/27 03:33:12;;;;;;;11.43;2.97;;;3.90;1.00;;;;;;5052629;28;20218;-68
2022/12/27 03:39:26;;;;;;;7.90;2.90;;;3.70;1.00;;;;;;5040023;28;20302;-70
2022/12/27 03:44:47;;;;;;;9.87;3.47;;;3.90;1.00;;;;;;5037062;28;20705;-70
2022/12/27 03:47:29;;;;;;;12.20;3.50;;;4.00;1.00;;;;;;5053562;28;20646;-70
2022/12/27 03:50:08;;;;;;;9.77;3.83;;;4.00;1.00;;;;;;5055159;28;20237;-70
2022/12/27 03:52:47;;;;;;;10.37;3.70;;;3.90;1.00;;;;;;5055268;28;20206;-70
2022/12/27 03:55:16;;;;;;;11.17;4.50;;;3.90;1.00;;;;;;5054435;28;20191;-70
2022/12/27 03:57:43;;;;;;;13.80;3.60;;;3.90;1.00;;;;;;5052811;28;20768;-67
2022/12/27 04:00:11;;;;;;;7.57;3.70;;;3.90;1.00;;;;;;5055187;28;20639;-68
2022/12/27 04:02:42;;;;;;;7.43;3.30;;;3.80;1.00;;;;;;5054615;28;20175;-69
2022/12/27 04:05:10;;;;;;;8.87;3.00;;;3.80;1.00;;;;;;5055295;28;20239;-68
2022/12/27 04:07:37;;;;;;;12.30;3.63;;;3.80;1.00;;;;;;5055139;28;20590;-69
2022/12/27 04:34:53;;;;;;;10.87;4.10;;;3.90;1.00;;;;;;5058607;28;20195;-71
2022/12/27 04:37:20;;;;;;;7.77;3.30;;;3.90;1.00;;;;;;5040087;28;20281;-70
2022/12/27 04:56:30;;;;;;;12.10;3.43;;;4.20;1.00;;;;;;5038271;28;20663;-69
2022/12/27 05:04:29;;;;;;;14.00;3.80;;;4.40;1.00;;;;;;5040842;28;20236;-69
2022/12/27 05:06:57;;;;;;;10.07;3.33;;;4.60;1.00;;;;;;5039497;28;20489;-69
2022/12/27 05:14:55;;;;;;;9.67;3.30;;;4.60;1.00;;;;;;5057171;28;20194;-69
2022/12/27 05:17:22;;;;;;;8.73;3.33;;;4.60;1.00;;;;;;5040949;28;20192;-69
2022/12/27 05:19:49;;;;;;;14.40;5.30;;;4.60;1.00;;;;;;5040987;28;20223;-69
2022/12/27 05:27:47;;;;;;;12.53;3.70;;;4.60;1.00;;;;;;5061148;28;20253;-69
2022/12/27 05:30:14;;;;;;;12.83;4.43;;;4.50;1.00;;;;;;5025584;28;21013;-69
2022/12/27 05:32:41;;;;;;;8.97;3.40;;;4.40;1.00;;;;;;5059348;28;20353;-69
2022/12/27 05:35:08;;;;;;;9.33;3.63;;;4.40;1.00;;;;;;5040977;28;20311;-69
2022/12/27 05:37:35;;;;;;;9.07;3.30;;;4.20;1.00;;;;;;5040188;28;20210;-69
2022/12/27 05:40:02;;;;;;;12.70;4.10;;;4.20;1.00;;;;;;5059383;28;20204;-69
2022/12/27 05:42:30;;;;;;;9.23;4.20;;;4.20;1.00;;;;;;5058723;28;20219;-70
2022/12/27 05:44:57;;;;;;;11.87;5.20;;;4.20;1.00;;;;;;5025178;28;20234;-69
2022/12/27 05:47:24;;;;;;;14.43;4.73;;;4.30;1.00;;;;;;5041316;28;20916;-69
2022/12/27 05:49:51;;;;;;;9.07;4.17;;;4.40;1.00;;;;;;5041320;28;20729;-69
2022/12/27 05:52:18;;;;;;;11.80;4.00;;;4.60;1.00;;;;;;5056284;28;20253;-69
2022/12/27 05:54:45;;;;;;;16.00;9.23;;;4.50;1.00;;;;;;5060665;28;20280;-69
2022/12/27 05:57:12;;;;;;;10.63;5.43;;;4.40;1.00;;;;;;5022153;28;20210;-73
2022/12/27 05:59:39;;;;;;;9.37;3.40;;;4.40;1.00;;;;;;5042364;28;20207;-71
2022/12/27 06:02:07;;;;;;;10.70;4.23;;;4.60;1.00;;;;;;5040523;28;20215;-71
2022/12/27 06:04:34;;;;;;;9.93;3.03;;;4.70;1.00;;;;;;5032555;28;20318;-71
2022/12/27 06:07:01;;;;;;;9.93;3.10;;;4.80;1.00;;;;;;5057132;28;20678;-71
2022/12/27 06:09:28;;;;;;;14.10;3.97;;;4.80;1.00;;;;;;5040082;28;20275;-71
2022/12/27 06:11:55;;;;;;;12.33;3.17;;;4.80;1.00;;;;;;5040995;28;20215;-71
2022/12/27 06:14:22;;;;;;;9.47;3.83;;;4.70;1.00;;;;;;5038918;28;20206;-70
2022/12/27 06:16:49;;;;;;;13.03;4.10;;;4.70;1.00;;;;;;5021640;28;20218;-70
2022/12/27 06:19:16;;;;;;;11.20;4.43;;;4.70;1.00;;;;;;5056562;28;20297;-69
2022/12/27 06:21:43;;;;;;;9.20;4.43;;;4.70;1.00;;;;;;5041362;28;20702;-69
2022/12/27 06:24:10;;;;;;;11.50;4.83;;;4.70;1.00;;;;;;5039629;28;20211;-68
2022/12/27 06:26:37;;;;;;;10.57;4.80;;;4.60;1.00;;;;;;5021894;28;20218;-68
2022/12/27 06:29:04;;;;;;;10.70;5.13;;;4.50;1.00;;;;;;5041660;28;20274;-69
2022/12/27 06:31:31;;;;;;;12.93;5.00;;;4.60;1.00;;;;;;5055906;28;20218;-69
2022/12/27 06:33:58;;;;;;;13.23;5.43;;;4.50;1.00;;;;;;5057123;28;20621;-68
2022/12/27 06:36:26;;;;;;;23.20;5.73;;;4.60;1.00;;;;;;5039425;28;20689;-71
2022/12/27 06:38:53;;;;;;;12.17;5.50;;;4.50;1.00;;;;;;5038653;28;20195;-68
2022/12/27 06:41:20;;;;;;;12.23;5.40;;;4.50;1.00;;;;;;5039051;28;20613;-68
2022/12/27 06:43:51;;;;;;;12.43;5.90;;;4.60;1.00;;;;;;5057101;28;20241;-68
2022/12/27 06:46:18;;;;;;;12.90;6.47;;;4.60;1.00;;;;;;5023872;28;20195;-68
2022/12/27 06:48:46;;;;;;;12.77;5.50;;;4.50;1.00;;;;;;5053734;28;20192;-68
2022/12/27 06:51:15;;;;;;;15.43;6.87;;;4.50;1.00;;;;;;5039686;28;20274;-68
2022/12/27 06:53:45;;;;;;;13.10;6.20;;;4.50;1.00;;;;;;5056581;28;20211;-68
2022/12/27 06:56:15;;;;;;;16.00;6.37;;;4.40;1.00;;;;;;5056556;28;20244;-68
2022/12/27 06:58:44;;;;;;;13.20;6.47;;;4.40;1.00;;;;;;5024490;28;20672;-68
2022/12/27 07:01:16;;;;;;;14.67;7.30;;;4.40;1.00;;;;;;5023597;28;20204;-69
2022/12/27 07:03:51;;;;;;;14.33;7.20;;;4.50;1.00;;;;;;5039526;28;20913;-68
2022/12/27 07:06:20;;;;;;;12.87;6.80;;;4.50;1.00;;;;;;5054222;28;20202;-69
2022/12/27 07:08:49;;;;;;;18.87;7.70;;;4.60;1.00;;;;;;5049662;28;20624;-68
2022/12/27 07:11:17;;;;;;;16.50;7.20;;;4.60;1.00;;;;;;5055658;28;20200;-68
2022/12/27 07:13:49;;;;;;;10.23;7.33;;;4.60;1.00;;;;;;5055129;28;20250;-68
2022/12/27 07:16:21;;;;;;;20.97;7.43;;;4.60;1.00;;;;;;5054568;28;20268;-69
2022/12/27 07:18:48;;;;;;;14.07;7.40;;;4.50;1.00;;;;;;5055472;28;20249;-69
2022/12/27 07:21:22;;;;;;;17.47;7.53;;;4.50;1.00;;;;;;5057158;28;20223;-69
2022/12/27 07:23:49;;;;;;;19.37;9.37;;;4.50;1.00;;;;;;5053000;28;20191;-69
2022/12/27 07:26:22;;;;;;;18.87;8.33;;;4.40;1.00;;;;;;5057814;28;20230;-67
2022/12/27 07:28:51;;;;;;;13.77;8.80;;;4.50;1.00;;;;;;5056661;28;20651;-69
2022/12/27 07:31:25;;;;;;;13.87;7.80;;;4.50;1.00;;;;;;5057741;28;20190;-68
2022/12/27 07:33:52;;;;;;;12.10;7.83;;;4.50;1.00;;;;;;5037495;28;20199;-69
2022/12/27 07:36:22;;;;;;;17.80;8.97;;;4.40;1.00;;;;;;5038687;28;20724;-69
2022/12/27 07:38:51;;;;;;;20.30;8.90;;;4.40;1.00;;;;;;5055953;28;20260;-69
2022/12/27 07:41:18;;;;;;;14.40;8.13;;;4.50;1.00;;;;;;5040556;28;20218;-68
2022/12/27 07:43:46;;;;;;;15.63;8.60;;;4.60;1.00;;;;;;5024032;28;20310;-68
2022/12/27 07:46:21;;;;;;;14.73;8.23;;;4.60;1.00;;;;;;5054684;28;20191;-68
2022/12/27 07:48:49;;;;;;;14.30;8.03;;;4.60;1.00;;;;;;5023201;28;20186;-69
2022/12/27 07:51:16;;;;;;;15.00;8.07;;;4.50;1.00;;;;;;5054384;28;20252;-69
2022/12/27 07:53:46;;;;;;;14.13;8.33;;;4.50;1.00;;;;;;5038436;28;20214;-69
2022/12/27 07:56:15;;;;;;;10.30;7.23;;;4.50;1.00;;;;;;5036886;28;20445;-69
2022/12/27 07:58:52;;;;;;;12.67;8.13;;;4.40;1.00;;;;;;5022456;28;20202;-70
2022/12/27 08:01:20;;;;;;;14.50;7.90;;;4.50;1.00;;;;;;5037032;28;20217;-72
2022/12/27 08:03:48;;;;;;;22.53;9.17;;;4.40;1.00;;;;;;5022231;28;20583;-69
2022/12/27 08:06:19;;;;;;;14.50;7.67;;;4.40;1.00;;;;;;5055532;28;20190;-70
2022/12/27 08:08:47;;;;;;;21.43;8.23;;;4.50;1.00;;;;;;5013387;28;20293;-70
2022/12/27 08:11:14;;;;;;;16.00;7.80;;;4.50;1.00;;;;;;5051956;28;20195;-69
2022/12/27 08:13:41;;;;;;;20.50;8.97;;;4.50;1.00;;;;;;5056887;28;20202;-70
2022/12/27 08:16:17;;;;;;;12.67;7.47;;;4.60;1.00;;;;;;5038804;28;20203;-70
2022/12/27 08:18:45;;;;;;;19.17;8.60;;;4.60;1.00;;;;;;5050115;28;20294;-70
2022/12/27 08:21:12;;;;;;;18.80;10.17;;;4.60;1.00;;;;;;5034833;28;20207;-70
2022/12/27 08:23:39;;;;;;;17.77;8.23;;;4.60;1.00;;;;;;5053437;28;20191;-71
2022/12/27 08:26:07;;;;;;;17.83;7.80;;;4.60;1.00;;;;;;5053444;28;20192;-70
2022/12/27 08:28:34;;;;;;;14.47;9.00;;;4.60;1.00;;;;;;5048916;28;20226;-69
2022/12/27 08:31:06;;;;;;;15.73;8.83;;;4.60;1.00;;;;;;5039859;28;20210;-69
2022/12/27 08:33:34;;;;;;;19.43;9.10;;;4.70;1.00;;;;;;5053356;28;20190;-68
2022/12/27 08:36:06;;;;;;;14.47;8.13;;;4.60;1.00;;;;;;5056301;28;20235;-69
2022/12/27 08:38:54;;;;;;;21.90;8.73;;;4.70;1.00;;;;;;5042630;28;20200;-70
2022/12/27 08:41:21;;;;;;;19.20;7.70;;;4.80;1.00;;;;;;5035573;28;20226;-70
2022/12/27 08:43:49;;;;;;;13.67;8.40;;;4.80;1.00;;;;;;5054733;28;20191;-70
2022/12/27 08:46:17;;;;;;;13.00;7.07;;;4.90;1.00;;;;;;5056487;28;20731;-70
2022/12/27 08:48:47;;;;;;;18.30;7.63;;;5.00;1.00;;;;;;5053943;28;20191;-71
2022/12/27 08:51:15;;;;;;;17.20;8.17;;;5.10;1.00;;;;;;5053022;28;20259;-71
2022/12/27 08:53:52;;;;;;;16.27;7.70;;;5.00;1.00;;;;;;5052215;28;20281;-70
2022/12/27 08:56:19;;;;;;;13.40;7.47;;;5.10;1.00;;;;;;5037196;28;20200;-70
2022/12/27 08:58:50;;;;;;;14.30;7.50;;;5.20;1.00;;;;;;5037991;28;20229;-70
2022/12/27 09:01:17;;;;;;;13.77;6.53;;;5.20;1.00;;;;;;5055735;28;20199;-70
2022/12/27 09:03:44;;;;;;;16.70;6.73;;;5.30;1.00;;;;;;5038790;28;20587;-70
2022/12/27 09:06:17;;;;;;;15.40;6.63;;;5.30;1.00;;;;;;5054281;28;20278;-69
2022/12/27 09:08:46;;;;;;;10.70;6.17;;;5.30;1.00;;;;;;5055280;28;20540;-69
2022/12/27 09:11:22;;;;;;;11.37;6.17;;;5.50;1.00;;;;;;5054881;28;20195;-69
2022/12/27 09:13:49;;;;;;;13.20;5.83;;;5.70;1.00;;;;;;5054327;28;20215;-69
2022/12/27 09:16:19;;;;;;;16.60;5.73;;;6.10;1.00;;;;;;5057644;28;20279;-69
2022/12/27 09:18:49;;;;;;;8.97;4.93;;;6.30;1.00;;;;;;5041822;28;20191;-69
2022/12/27 09:21:17;;;;;;;12.50;5.23;;;6.70;1.00;;;;;;5041694;28;20231;-69
2022/12/27 09:23:46;;;;;;;18.30;5.93;;;7.70;1.00;;;;;;5056657;28;20183;-69
2022/12/27 09:26:16;;;;;;;12.10;5.30;;;8.80;1.00;;;;;;5059557;28;20248;-69
2022/12/27 09:28:43;;;;;;;10.83;4.67;;;8.90;1.00;;;;;;5059996;28;20191;-69
2022/12/27 09:31:11;;;;;;;17.40;4.60;;;8.90;1.00;;;;;;5059717;28;20257;-70
2022/12/27 09:33:39;;;;;;;10.57;4.60;;;9.90;1.00;;;;;;5060647;28;20194;-70
2022/12/27 09:36:07;;;;;;;10.60;4.47;;;9.10;1.00;;;;;;5042490;28;20258;-70
2022/12/27 09:38:35;;;;;;;11.30;4.70;;;8.70;1.00;;;;;;5023272;28;20213;-72
2022/12/27 09:41:17;;;;;;;9.10;4.90;;;8.00;1.00;;;;;;5060647;28;20764;-70
2022/12/27 09:44:22;;;;;;;10.20;4.37;;;8.60;1.00;;;;;;5041718;28;20191;-70
2022/12/27 09:47:07;;;;;;;9.60;4.43;;;9.00;1.00;;;;;;5038982;28;20206;-69
2022/12/27 09:49:54;;;;;;;11.47;3.60;;;10.70;1.00;;;;;;5037757;28;20190;-69
2022/12/27 09:52:36;;;;;;;13.33;4.03;;;12.00;1.00;;;;;;5057881;28;20188;-68
2022/12/27 09:55:29;;;;;;;5.67;2.90;;;12.10;1.00;;;;;;5059688;28;20198;-68
2022/12/27 09:58:06;;;;;;;10.43;4.03;;;11.70;1.00;;;;;;5035187;28;20567;-68
2022/12/27 10:00:34;;;;;;;11.40;3.70;;;12.60;1.00;;;;;;5041545;28;20309;-68
2022/12/27 10:03:06;;;;;;;12.03;3.83;;;12.30;1.00;;;;;;5058006;28;20194;-71
2022/12/27 10:05:35;;;;;;;8.57;3.23;;;11.30;1.00;;;;;;5057357;28;20284;-71
2022/12/27 10:08:25;;;;;;;8.47;3.43;;;11.00;1.00;;;;;;5059219;28;20209;-68
2022/12/27 10:11:01;;;;;;;5.57;3.07;;;9.90;1.00;;;;;;5041383;28;20198;-70
2022/12/27 10:13:56;;;;;;;7.70;3.47;;;9.20;1.00;;;;;;5041558;28;20244;-69
2022/12/27 10:16:39;;;;;;;12.43;3.67;;;9.50;1.00;;;;;;5057761;28;20241;-64
2022/12/27 10:19:32;;;;;;;10.13;3.63;;;9.00;1.00;;;;;;5056723;28;20620;-64
2022/12/27 10:22:14;;;;;;;10.30;3.53;;;8.10;1.00;;;;;;5041895;28;20310;-65
2022/12/27 10:24:53;;;;;;;5.90;2.80;;;9.00;1.00;;;;;;5041792;28;20194;-65
2022/12/27 10:27:25;;;;;;;9.33;3.73;;;9.10;1.00;;;;;;5052716;28;20191;-64
2022/12/27 10:29:54;;;;;;;14.83;3.87;;;9.10;1.00;;;;;;5056704;28;20200;-64
2022/12/27 10:32:22;;;;;;;14.70;4.00;;;9.30;1.00;;;;;;5041435;28;20602;-64
2022/12/27 10:35:00;;;;;;;7.63;3.50;;;9.30;1.00;;;;;;5056041;28;20192;-64
2022/12/27 10:37:28;;;;;;;11.53;3.53;;;9.60;1.00;;;;;;5051742;28;20188;-64
2022/12/27 10:40:06;;;;;;;10.20;3.60;;;10.10;1.00;;;;;;5058169;28;20199;-64
2022/12/27 10:42:40;;;;;;;10.63;3.30;;;9.20;1.00;;;;;;5058575;28;20225;-64
2022/12/27 10:45:26;;;;;;;8.97;3.17;;;10.60;1.00;;;;;;5060661;28;20191;-64
2022/12/27 10:47:56;;;;;;;7.70;3.30;;;9.80;1.00;;;;;;5057649;28;20192;-64
2022/12/27 10:50:27;;;;;;;11.03;3.23;;;9.90;1.00;;;;;;5039476;28;20222;-65
2022/12/27 10:52:54;;;;;;;10.93;3.43;;;9.70;1.00;;;;;;5040912;28;20203;-64
2022/12/27 10:55:37;;;;;;;8.17;3.17;;;8.70;1.00;;;;;;5039232;28;20195;-64
2022/12/27 10:58:25;;;;;;;13.47;3.00;;;9.50;1.00;;;;;;5038126;28;20205;-64
2022/12/27 11:00:56;;;;;;;16.03;4.37;;;8.80;1.00;;;;;;5054852;28;21036;-64
2022/12/27 11:03:25;;;;;;;11.63;3.40;;;8.50;1.00;;;;;;5058855;28;20239;-64
2022/12/27 11:06:15;;;;;;;8.27;2.70;;;8.70;1.00;;;;;;5057483;28;20235;-64
2022/12/27 11:08:42;;;;;;;8.40;3.07;;;8.70;1.00;;;;;;5054802;28;20187;-65
2022/12/27 11:11:22;;;;;;;9.03;2.80;;;9.20;1.00;;;;;;5038670;28;20248;-65
2022/12/27 11:13:51;;;;;;;7.73;2.73;;;11.40;1.00;;;;;;5051542;28;20622;-68
2022/12/27 11:16:21;;;;;;;10.50;2.80;;;12.40;1.00;;;;;;5057550;28;20223;-66
2022/12/27 11:18:52;;;;;;;6.80;2.30;;;12.60;1.00;;;;;;5053434;28;20218;-65
2022/12/27 11:21:19;;;;;;;8.67;3.00;;;13.00;1.00;;;;;;5037286;28;20218;-66
2022/12/27 11:24:01;;;;;;;10.37;3.10;;;12.40;1.00;;;;;;5056887;28;20197;-67
2022/12/27 11:26:48;;;;;;;6.63;2.73;;;12.00;1.00;;;;;;5057639;28;20752;-65
2022/12/27 11:29:23;;;;;;;7.73;2.80;;;12.30;1.00;;;;;;5037238;28;20200;-65
2022/12/27 11:31:52;;;;;;;6.97;2.80;;;13.20;1.00;;;;;;5038891;28;20272;-65
2022/12/27 11:34:31;;;;;;;11.20;3.20;;;13.50;1.00;;;;;;5053759;28;20621;-65
2022/12/27 11:37:14;;;;;;;8.45;2.95;;;13.20;1.00;;;;;;5055513;28;20342;-65
2022/12/27 11:39:51;;;;;;;10.07;3.05;;;13.80;1.00;;;;;;5057606;28;20566;-65
2022/12/27 11:42:37;;;;;;;6.70;2.63;;;13.30;1.00;;;;;;5053288;28;20288;-64
2022/12/27 11:45:08;;;;;;;7.73;2.60;;;11.90;1.00;;;;;;5058189;28;20191;-64
2022/12/27 11:47:38;;;;;;;7.70;2.37;;;12.10;1.00;;;;;;5036506;28;20215;-65
2022/12/27 11:50:14;;;;;;;7.97;2.37;;;13.30;1.00;;;;;;5055844;28;20241;-65
2022/12/27 11:53:02;;;;;;;8.13;2.20;;;12.80;1.00;;;;;;5020982;28;20275;-65
2022/12/27 11:55:56;;;;;;;12.93;2.50;;;12.20;1.00;;;;;;5054159;28;20550;-66
2022/12/27 11:58:44;;;;;;;10.47;3.83;;;11.40;1.00;;;;;;5053407;28;20203;-65
2022/12/27 12:01:26;;;;;;;7.87;2.43;;;10.70;1.00;;;;;;5057192;28;20214;-65
2022/12/27 12:04:18;;;;;;;11.93;3.23;;;10.40;1.00;;;;;;5055526;28;20234;-65
2022/12/27 12:06:50;;;;;;;10.73;2.57;;;9.60;1.00;;;;;;5010778;28;20202;-64
2022/12/27 12:09:37;;;;;;;10.53;2.77;;;9.30;1.00;;;;;;5054768;28;20172;-65
2022/12/27 12:12:19;;;;;;;10.43;2.60;;;9.30;1.00;;;;;;5056106;28;20199;-64
2022/12/27 12:15:11;;;;;;;13.07;2.90;;;9.00;1.00;;;;;;5055812;28;20618;-65
2022/12/27 12:18:15;;;;;;;7.27;2.60;;;9.00;1.00;;;;;;5056091;28;20586;-65
2022/12/27 12:21:10;;;;;;;12.70;3.00;;;9.10;1.00;;;;;;5057288;28;20302;-65
2022/12/27 12:23:56;;;;;;;8.83;2.70;;;9.10;1.00;;;;;;5038812;28;20191;-65
2022/12/27 12:26:25;;;;;;;11.63;3.13;;;9.30;1.00;;;;;;5038308;28;20193;-66
2022/12/27 12:29:30;;;;;;;8.07;2.70;;;9.20;1.00;;;;;;5021680;28;20747;-65
2022/12/27 12:32:05;;;;;;;7.20;2.20;;;9.50;1.00;;;;;;5022269;28;20627;-70
2022/12/27 12:34:32;;;;;;;11.97;2.63;;;9.30;1.00;;;;;;5056272;28;20202;-66
2022/12/27 12:37:27;;;;;;;6.20;2.07;;;9.10;1.00;;;;;;5038001;28;20285;-66
2022/12/27 12:40:25;;;;;;;9.07;2.73;;;9.20;1.00;;;;;;5039694;28;20677;-65
2022/12/27 12:43:23;;;;;;;14.00;4.23;;;9.50;1.00;;;;;;5053173;28;20704;-65
2022/12/27 12:45:50;;;;;;;14.37;3.63;;;9.40;1.00;;;;;;5058153;28;20698;-64
2022/12/27 12:48:48;;;;;;;7.60;2.67;;;9.40;1.00;;;;;;5041011;28;20205;-64
2022/12/27 12:51:40;;;;;;;9.23;2.90;;;9.00;1.00;;;;;;5052957;28;20236;-65
2022/12/27 12:54:46;;;;;;;9.80;2.50;;;8.90;1.00;;;;;;5025605;28;20655;-64
2022/12/27 12:57:53;;;;;;;8.17;2.70;;;9.00;1.00;;;;;;5057104;28;20219;-64
2022/12/27 13:00:40;;;;;;;10.67;3.43;;;9.20;1.00;;;;;;5042360;28;20290;-64
2022/12/27 13:03:16;;;;;;;16.27;7.53;;;9.60;1.00;;;;;;5040631;28;20723;-64
2022/12/27 13:06:18;;;;;;;13.23;5.23;;;9.90;1.00;;;;;;5056537;28;20238;-64
2022/12/27 13:09:03;;;;;;;31.37;21.47;;;9.70;1.00;;;;;;5026888;28;20221;-64
2022/12/27 13:12:04;;;;;;;11.13;5.23;;;9.70;1.00;;;;;;5056147;28;20215;-64
2022/12/27 13:14:55;;;;;;;16.07;7.97;;;9.50;1.00;;;;;;5056855;28;20273;-63
2022/12/27 13:17:48;;;;;;;20.73;12.20;;;10.10;1.00;;;;;;5053173;28;20771;-64
2022/12/27 13:20:40;;;;;;;19.70;9.63;;;10.10;1.00;;;;;;5059086;28;20195;-64
2022/12/27 13:23:29;;;;;;;9.53;4.30;;;10.30;1.00;;;;;;5024179;28;20573;-64
2022/12/27 13:26:30;;;;;;;15.90;7.10;;;9.60;1.00;;;;;;5059746;28;20725;-64
2022/12/27 13:29:26;;;;;;;5.40;2.40;;;9.30;1.00;;;;;;5058716;28;20642;-64
2022/12/27 13:31:56;;;;;;;9.07;3.07;;;9.20;1.00;;;;;;5022580;28;20307;-64
2022/12/27 13:34:42;;;;;;;12.63;2.80;;;9.10;1.00;;;;;;5059808;28;20679;-65
2022/12/27 13:37:24;;;;;;;10.20;3.03;;;8.80;1.00;;;;;;5056382;28;20477;-64
2022/12/27 13:40:13;;;;;;;12.83;2.90;;;8.50;1.00;;;;;;5056737;28;20587;-64
2022/12/27 13:42:58;;;;;;;13.97;4.70;;;8.40;1.00;;;;;;5056845;28;20212;-64
2022/12/27 13:45:56;;;;;;;7.07;3.03;;;8.60;1.00;;;;;;5025903;28;20203;-64
2022/12/27 13:49:07;;;;;;;8.57;2.97;;;8.40;1.00;;;;;;5040493;28;20690;-64
2022/12/27 13:51:42;;;;;;;8.70;2.60;;;8.20;1.00;;;;;;5036197;28;20206;-64
2022/12/27 13:54:31;;;;;;;11.80;3.50;;;8.10;1.00;;;;;;5059727;28;20237;-64
2022/12/27 13:57:19;;;;;;;7.23;2.63;;;7.90;1.00;;;;;;5058185;28;20203;-64
2022/12/27 14:00:16;;;;;;;6.93;3.03;;;7.90;1.00;;;;;;5041213;28;20312;-64
2022/12/27 14:03:13;;;;;;;6.73;2.50;;;7.70;1.00;;;;;;5056393;28;20242;-64
2022/12/27 14:05:59;;;;;;;6.67;2.97;;;7.70;1.00;;;;;;5060027;28;20231;-64
2022/12/27 14:08:35;;;;;;;11.10;3.93;;;7.70;1.00;;;;;;5057147;28;20265;-64
2022/12/27 14:11:22;;;;;;;5.83;3.00;;;7.70;1.00;;;;;;5060239;28;20203;-64
2022/12/27 14:13:50;;;;;;;9.30;3.90;;;7.70;1.00;;;;;;5042303;28;20211;-64
2022/12/27 14:17:01;;;;;;;12.27;3.80;;;7.70;1.00;;;;;;5041721;28;20625;-63
2022/12/27 14:19:59;;;;;;;8.77;3.27;;;7.60;1.00;;;;;;5031983;28;20273;-63
2022/12/27 14:22:44;;;;;;;17.30;4.50;;;7.50;1.00;;;;;;5058400;28;20257;-64
2022/12/27 14:25:44;;;;;;;13.60;3.70;;;7.50;1.00;;;;;;5040682;28;20282;-64
2022/12/27 14:28:30;;;;;;;8.87;4.00;;;7.50;1.00;;;;;;5057196;28;20196;-64
2022/12/27 14:31:21;;;;;;;8.90;4.43;;;7.50;1.00;;;;;;5040229;28;20272;-64
2022/12/27 14:34:15;;;;;;;7.07;3.67;;;7.60;1.00;;;;;;5041738;28;20183;-64
2022/12/27 14:37:00;;;;;;;10.30;5.67;;;7.60;1.00;;;;;;5023540;28;20196;-64
2022/12/27 14:39:33;;;;;;;11.03;5.17;;;7.60;1.00;;;;;;5054672;28;20352;-64
2022/12/27 14:42:19;;;;;;;12.37;6.10;;;7.60;1.00;;;;;;5059814;28;20206;-64
2022/12/27 14:45:13;;;;;;;12.63;5.73;;;7.60;1.00;;;;;;5027764;28;20198;-64
2022/12/27 14:48:23;;;;;;;12.07;5.50;;;7.60;1.00;;;;;;5044929;28;20646;-64
2022/12/27 14:51:18;;;;;;;11.50;5.47;;;7.50;1.00;;;;;;5047493;28;21021;-65
2022/12/27 14:54:59;;;;;;;10.67;5.27;;;7.40;1.00;;;;;;5051461;28;20191;-64
2022/12/27 14:58:07;;;;;;;11.67;7.00;;;7.20;1.00;;;;;;4973197;28;20291;-64
2022/12/27 15:00:58;;;;;;;28.13;12.70;;;7.10;1.00;;;;;;5047371;28;20191;-64
2022/12/27 15:03:52;;;;;;;18.57;7.30;;;7.00;1.00;;;;;;5029585;28;20725;-64
2022/12/27 15:06:56;;;;;;;12.33;4.77;;;6.90;1.00;;;;;;5046048;28;20820;-65
2022/12/27 15:09:31;;;;;;;14.43;5.10;;;6.80;1.00;;;;;;5037333;28;20207;-64
2022/12/27 15:12:14;;;;;;;12.30;4.17;;;6.80;1.00;;;;;;5052252;28;20198;-64
2022/12/27 15:14:56;;;;;;;12.30;6.73;;;6.70;1.00;;;;;;5058452;28;20202;-65
2022/12/27 15:17:38;;;;;;;9.07;3.97;;;6.70;1.00;;;;;;5058347;28;20231;-64
2022/12/27 15:20:21;;;;;;;11.73;5.70;;;6.60;1.00;;;;;;5057224;28;20187;-64
2022/12/27 15:23:20;;;;;;;10.87;4.63;;;6.60;1.00;;;;;;5024009;28;20226;-65
2022/12/27 15:25:59;;;;;;;10.40;4.30;;;6.50;1.00;;;;;;5034526;28;20256;-65
2022/12/27 15:28:32;;;;;;;13.83;6.90;;;6.50;1.00;;;;;;5024577;28;20194;-65
2022/12/27 15:31:14;;;;;;;13.03;6.57;;;6.40;1.00;;;;;;5057317;28;20594;-66